createdAt,value
2019-04-23T00:02:44.432Z,2.20
2019-04-23T00:05:21.150Z,2.20
2019-04-23T00:07:49.826Z,2.77
2019-04-23T00:10:19.467Z,2.25
2019-04-23T00:12:47.842Z,2.40
2019-04-23T00:15:30.853Z,1.90
2019-04-23T00:17:48.904Z,2.25
2019-04-23T00:23:09.584Z,2.17
2019-04-23T00:26:02.626Z,3.42
2019-04-23T00:28:21.641Z,2.30
2019-04-23T00:30:54.981Z,2.15
2019-04-23T00:35:53.344Z,2.22
2019-04-23T00:38:26.516Z,2.80
2019-04-23T00:40:55.153Z,2.30
2019-04-23T00:43:24.354Z,2.50
2019-04-23T00:45:48.855Z,2.42
2019-04-23T00:48:28.232Z,2.72
2019-04-23T00:53:22.101Z,2.35
2019-04-23T00:56:05.610Z,2.45
2019-04-23T00:58:32.373Z,2.33
2019-04-23T01:00:57.936Z,2.70
2019-04-23T01:03:21.447Z,2.62
2019-04-23T01:05:54.881Z,2.60
2019-04-23T01:13:39.589Z,2.22
2019-04-23T01:20:59.007Z,2.33
2019-04-23T01:23:53.828Z,2.80
2019-04-23T01:26:35.594Z,2.92
2019-04-23T01:29:12.594Z,2.80
2019-04-23T01:31:41.429Z,2.95
2019-04-23T01:34:21.855Z,2.90
2019-04-23T01:36:48.754Z,2.80
2019-04-23T01:41:52.327Z,2.92
2019-04-23T01:44:27.849Z,3.02
2019-04-23T01:46:49.300Z,2.58
2019-04-23T01:49:20.789Z,2.80
2019-04-23T01:51:55.770Z,2.80
2019-04-23T01:54:24.124Z,2.75
2019-04-23T01:56:49.121Z,3.10
2019-04-23T01:59:22.277Z,3.17
2019-04-23T02:01:50.405Z,3.35
2019-04-23T02:04:24.396Z,3.55
2019-04-23T02:06:50.484Z,2.70
2019-04-23T02:09:25.484Z,2.80
2019-04-23T02:11:53.830Z,2.72
2019-04-23T02:14:20.949Z,3.15
2019-04-23T02:16:50.001Z,3.62
2019-04-23T02:19:33.340Z,3.30
2019-04-23T02:22:17.502Z,3.40
2019-04-23T02:24:47.684Z,3.17
2019-04-23T02:27:22.479Z,3.30
2019-04-23T02:30:20.870Z,3.10
2019-04-23T02:32:34.046Z,3.22
2019-04-23T02:34:57.801Z,3.60
2019-04-23T02:37:35.602Z,2.95
2019-04-23T02:40:01.914Z,3.12
2019-04-23T02:42:43.277Z,3.42
2019-04-23T02:44:58.185Z,3.30
2019-04-23T02:47:46.637Z,4.10
2019-04-23T02:50:09.245Z,3.33
2019-04-23T02:55:03.772Z,3.40
2019-04-23T02:57:29.770Z,3.62
2019-04-23T03:05:00.820Z,3.17
2019-04-23T03:07:38.964Z,3.37
2019-04-23T03:10:03.317Z,3.40
2019-04-23T03:12:37.734Z,3.90
2019-04-23T03:15:29.736Z,3.58
2019-04-23T03:21:19.074Z,3.42
2019-04-23T03:23:44.820Z,3.90
2019-04-23T03:32:48.434Z,4.15
2019-04-23T03:42:12.324Z,4.37
2019-04-23T03:43:41.145Z,3.58
2019-04-23T03:48:46.945Z,4.00
2019-04-23T03:51:16.300Z,3.65
2019-04-23T03:54:21.804Z,5.55
2019-04-23T03:56:41.604Z,7.00
2019-04-23T03:58:49.391Z,6.95
2019-04-23T04:07:08.493Z,4.35
2019-04-23T04:09:03.471Z,7.30
2019-04-23T04:14:01.473Z,6.90
2019-04-23T04:18:54.250Z,5.75
2019-04-23T04:24:05.380Z,6.67
2019-04-23T04:26:37.796Z,5.60
2019-04-23T04:29:19.446Z,8.13
2019-04-23T04:31:30.986Z,5.92
2019-04-23T04:36:32.598Z,7.33
2019-04-23T04:38:57.204Z,9.78
2019-04-23T04:46:50.669Z,5.03
2019-04-23T04:51:37.623Z,6.00
2019-04-23T04:54:13.912Z,5.90
2019-04-23T04:59:03.819Z,5.72
2019-04-23T05:01:28.765Z,7.15
2019-04-23T05:04:02.246Z,6.40
2019-04-23T05:06:44.396Z,6.00
2019-04-23T05:09:19.549Z,6.35
2019-04-23T05:14:26.501Z,5.95
2019-04-23T05:16:33.727Z,6.58
2019-04-23T05:21:46.604Z,6.28
2019-04-23T05:24:08.761Z,6.80
2019-04-23T05:31:32.549Z,6.50
2019-04-23T05:36:43.815Z,7.45
2019-04-23T05:39:15.848Z,7.08
2019-04-23T05:41:40.109Z,8.28
2019-04-23T05:44:17.147Z,7.17
2019-04-23T05:46:36.677Z,7.10
2019-04-23T05:49:13.680Z,7.25
2019-04-23T05:51:50.413Z,7.78
2019-04-23T05:54:12.574Z,8.13
2019-04-23T05:56:55.257Z,7.87
2019-04-23T06:01:58.836Z,7.78
2019-04-23T06:04:17.599Z,7.95
2019-04-23T06:07:04.705Z,8.60
2019-04-23T06:09:20.427Z,8.25
2019-04-23T06:14:35.293Z,8.20
2019-04-23T06:16:49.865Z,8.78
2019-04-23T06:19:30.501Z,10.40
2019-04-23T06:26:51.710Z,9.50
2019-04-23T06:31:49.231Z,9.03
2019-04-23T06:34:21.752Z,8.08
2019-04-23T06:36:51.329Z,8.80
2019-04-23T06:39:26.417Z,9.28
2019-04-23T06:41:55.019Z,8.95
2019-04-23T06:49:37.592Z,9.00
2019-04-23T06:54:35.866Z,8.55
2019-04-23T06:57:09.018Z,8.63
2019-04-23T06:59:30.737Z,8.68
2019-04-23T07:02:08.397Z,8.10
2019-04-23T07:04:38.178Z,8.93
2019-04-23T07:09:26.220Z,9.10
2019-04-23T07:12:07.689Z,8.53
2019-04-23T07:14:44.547Z,8.88
2019-04-23T07:17:21.300Z,8.43
2019-04-23T07:22:14.668Z,8.65
2019-04-23T07:24:43.700Z,8.73
2019-04-23T07:27:11.235Z,9.13
2019-04-23T07:29:43.496Z,9.08
2019-04-23T07:32:23.726Z,8.48
2019-04-23T07:34:41.482Z,8.95
2019-04-23T07:37:15.680Z,8.95
2019-04-23T07:40:22.919Z,8.75
2019-04-23T07:42:55.106Z,8.60
2019-04-23T07:45:49.431Z,8.78
2019-04-23T07:53:31.259Z,8.53
2019-04-23T07:58:25.791Z,8.18
2019-04-23T08:05:42.544Z,8.60
2019-04-23T08:08:16.999Z,8.48
2019-04-23T08:11:30.770Z,8.48
2019-04-23T08:16:19.603Z,8.70
2019-04-23T08:18:48.048Z,8.43
2019-04-23T08:21:13.145Z,9.18
2019-04-23T08:24:10.316Z,8.53
2019-04-23T08:27:10.052Z,8.00
2019-04-23T08:29:54.423Z,8.60
2019-04-23T08:32:18.617Z,8.75
2019-04-23T08:34:54.352Z,9.23
2019-04-23T08:37:25.334Z,8.30
2019-04-23T08:39:46.986Z,8.45
2019-04-23T08:48:24.365Z,8.70
2019-04-23T08:53:31.714Z,8.55
2019-04-23T08:55:53.590Z,7.65
2019-04-23T08:58:19.164Z,8.60
2019-04-23T09:00:55.255Z,9.08
2019-04-23T09:03:25.234Z,8.85
2019-04-23T09:05:53.121Z,8.50
2019-04-23T09:08:20.383Z,8.15
2019-04-23T09:10:55.936Z,8.35
2019-04-23T09:18:20.987Z,8.70
2019-04-23T09:20:49.705Z,8.28
2019-04-23T09:23:30.877Z,8.05
2019-04-23T09:25:55.879Z,8.25
2019-04-23T09:28:38.488Z,7.85
2019-04-23T09:31:04.106Z,8.03
2019-04-23T09:33:41.370Z,8.45
2019-04-23T09:36:13.623Z,7.87
2019-04-23T09:47:14.280Z,8.70
2019-04-23T09:49:42.460Z,8.40
2019-04-23T09:52:17.574Z,8.53
2019-04-23T09:54:52.344Z,8.98
2019-04-23T09:57:24.317Z,8.03
2019-04-23T09:59:43.068Z,8.40
2019-04-23T10:02:05.298Z,8.43
2019-04-23T10:04:31.982Z,8.58
2019-04-23T10:07:01.679Z,8.48
2019-04-23T10:09:18.827Z,8.60
2019-04-23T10:11:49.279Z,8.63
2019-04-23T10:14:18.662Z,8.73
2019-04-23T10:16:49.240Z,8.63
2019-04-23T10:19:18.978Z,8.53
2019-04-23T10:21:49.141Z,8.00
2019-04-23T10:24:19.159Z,8.70
2019-04-23T10:26:48.205Z,9.05
2019-04-23T10:29:23.724Z,8.65
2019-04-23T10:31:53.571Z,8.58
2019-04-23T10:34:23.305Z,8.13
2019-04-23T10:36:53.616Z,8.58
2019-04-23T10:39:28.376Z,8.68
2019-04-23T10:41:55.306Z,7.95
2019-04-23T10:44:35.520Z,7.40
2019-04-23T10:47:54.416Z,8.00
2019-04-23T10:53:28.342Z,7.83
2019-04-23T10:56:01.055Z,8.40
2019-04-23T11:00:53.817Z,9.50
2019-04-23T11:03:47.352Z,7.83
2019-04-23T11:05:59.115Z,8.40
2019-04-23T11:08:27.703Z,7.42
2019-04-23T11:10:58.965Z,8.20
2019-04-23T11:13:31.847Z,8.08
2019-04-23T11:16:24.783Z,7.35
2019-04-23T11:18:50.163Z,8.75
2019-04-23T11:21:05.302Z,8.83
2019-04-23T11:23:38.804Z,7.78
2019-04-23T11:26:06.989Z,8.00
2019-04-23T11:28:37.799Z,8.15
2019-04-23T11:31:25.605Z,7.12
2019-04-23T11:33:46.130Z,7.90
2019-04-23T11:36:43.613Z,8.10
2019-04-23T11:41:21.510Z,8.25
2019-04-23T11:46:39.526Z,8.73
2019-04-23T11:49:19.719Z,8.80
2019-04-23T11:53:48.224Z,8.60
2019-04-23T11:56:35.356Z,8.25
2019-04-23T11:58:45.850Z,8.85
2019-04-23T12:01:52.239Z,8.10
2019-04-23T12:04:57.433Z,8.15
2019-04-23T12:07:28.122Z,7.53
2019-04-23T12:12:31.277Z,7.97
2019-04-23T12:15:19.490Z,7.42
2019-04-23T12:22:43.520Z,7.62
2019-04-23T12:27:33.164Z,7.90
2019-04-23T12:30:08.355Z,8.30
2019-04-23T12:47:59.879Z,7.58
2019-04-23T12:52:55.679Z,8.38
2019-04-23T12:55:34.138Z,7.97
2019-04-23T12:58:03.517Z,8.08
2019-04-23T13:00:27.147Z,8.53
2019-04-23T13:03:09.769Z,8.70
2019-04-23T13:05:27.006Z,7.78
2019-04-23T13:13:09.447Z,8.15
2019-04-23T13:15:29.388Z,8.73
2019-04-23T13:20:32.151Z,8.48
2019-04-23T13:26:11.818Z,8.00
2019-04-23T13:41:17.339Z,7.87
2019-04-23T13:43:40.096Z,8.23
2019-04-23T13:46:13.704Z,7.37
2019-04-23T13:48:39.217Z,7.47
2019-04-23T13:56:25.257Z,8.20
2019-04-23T14:08:55.209Z,7.58
2019-04-23T14:13:58.583Z,8.20
2019-04-23T14:21:25.288Z,7.45
2019-04-23T14:31:38.977Z,7.90
2019-04-23T14:36:32.881Z,7.95
2019-04-23T14:38:59.582Z,7.60
2019-04-23T14:41:44.017Z,7.87
2019-04-23T14:44:10.474Z,7.92
2019-04-23T14:49:10.951Z,8.00
2019-04-23T14:54:15.677Z,7.85
2019-04-23T14:56:47.798Z,7.67
2019-04-23T15:01:40.254Z,7.55
2019-04-23T15:04:10.988Z,8.03
2019-04-23T15:06:54.831Z,7.28
2019-04-23T15:09:22.990Z,7.75
2019-04-23T15:11:59.305Z,7.53
2019-04-23T15:14:17.170Z,8.15
2019-04-23T15:19:34.989Z,7.35
2019-04-23T15:29:08.601Z,7.37
2019-04-23T15:31:55.452Z,7.45
2019-04-23T15:37:20.325Z,6.97
2019-04-23T15:44:41.937Z,8.25
2019-04-23T15:47:05.082Z,6.60
2019-04-23T15:49:26.582Z,7.37
2019-04-23T15:52:18.928Z,7.85
2019-04-23T15:54:35.709Z,7.35
2019-04-23T15:57:01.179Z,6.95
2019-04-23T15:59:34.944Z,6.45
2019-04-23T16:01:41.864Z,6.15
2019-04-23T16:04:06.103Z,6.85
2019-04-23T16:06:37.380Z,6.72
2019-04-23T16:09:28.428Z,6.78
2019-04-23T16:12:01.073Z,6.35
2019-04-23T16:14:47.924Z,5.90
2019-04-23T16:17:14.076Z,6.80
2019-04-23T16:19:59.684Z,6.22
2019-04-23T16:22:20.415Z,6.30
2019-04-23T16:25:01.110Z,5.80
2019-04-23T16:27:34.964Z,5.50
2019-04-23T16:35:28.689Z,5.92
2019-04-23T16:38:01.442Z,6.35
2019-04-23T16:40:28.952Z,6.47
2019-04-23T16:42:58.053Z,6.08
2019-04-23T16:45:31.067Z,5.67
2019-04-23T16:47:56.613Z,6.50
2019-04-23T16:50:20.847Z,6.42
2019-04-23T16:52:53.632Z,6.50
2019-04-23T16:55:24.204Z,6.20
2019-04-23T16:58:01.569Z,6.35
2019-04-23T17:03:07.923Z,7.22
2019-04-23T17:05:24.959Z,7.20
2019-04-23T17:08:27.100Z,7.40
2019-04-23T17:10:30.990Z,8.33
2019-04-23T17:18:02.423Z,6.65
2019-04-23T17:20:30.918Z,6.75
2019-04-23T17:23:07.530Z,6.12
2019-04-23T17:25:48.365Z,6.75
2019-04-23T17:30:32.398Z,6.70
2019-04-23T17:35:55.805Z,6.97
2019-04-23T17:38:24.129Z,7.17
2019-04-23T17:41:10.135Z,7.62
2019-04-23T17:43:36.352Z,8.80
2019-04-23T17:46:08.813Z,8.55
2019-04-23T17:48:35.934Z,9.13
2019-04-23T17:51:11.593Z,8.43
2019-04-23T17:53:42.527Z,9.55
2019-04-23T17:56:16.683Z,9.05
2019-04-23T17:58:40.857Z,9.05
2019-04-23T18:03:55.848Z,9.53
2019-04-23T18:08:50.851Z,10.13
2019-04-23T18:11:16.011Z,10.50
2019-04-23T18:13:50.451Z,9.20
2019-04-23T18:16:30.608Z,9.58
2019-04-23T18:19:10.045Z,9.18
2019-04-23T18:24:27.399Z,10.45
2019-04-23T18:27:04.952Z,9.30
2019-04-23T18:30:02.684Z,9.73
2019-04-23T18:37:25.744Z,9.85
2019-04-23T18:39:56.520Z,10.05
2019-04-23T18:44:55.789Z,10.13
2019-04-23T18:47:35.407Z,10.48
2019-04-23T18:49:52.977Z,11.70
2019-04-23T18:52:33.108Z,12.93
2019-04-23T18:54:55.695Z,10.78
2019-04-23T18:57:36.781Z,10.75
2019-04-23T19:00:02.545Z,11.25
2019-04-23T19:02:58.470Z,9.93
2019-04-23T19:05:30.922Z,10.50
2019-04-23T19:11:07.272Z,10.90
2019-04-23T19:13:41.834Z,11.70
2019-04-23T19:15:59.779Z,11.55
2019-04-23T19:18:40.385Z,11.22
2019-04-23T19:23:51.124Z,12.37
2019-04-23T19:26:15.794Z,12.30
2019-04-23T19:28:48.817Z,12.18
2019-04-23T19:31:26.299Z,11.90
2019-04-23T19:34:29.856Z,12.10
2019-04-23T19:39:24.658Z,12.47
2019-04-23T19:42:06.223Z,13.32
2019-04-23T19:44:27.991Z,12.33
2019-04-23T19:51:56.765Z,11.93
2019-04-23T19:59:31.553Z,12.73
2019-04-23T20:02:02.069Z,12.37
2019-04-23T20:04:34.058Z,13.30
2019-04-23T20:12:03.313Z,13.35
2019-04-23T20:14:32.405Z,13.20
2019-04-23T20:17:20.283Z,14.03
2019-04-23T20:19:37.658Z,13.38
2019-04-23T20:24:53.379Z,14.23
2019-04-23T20:30:15.512Z,13.43
2019-04-23T20:35:16.435Z,14.25
2019-04-23T20:42:49.731Z,14.40
2019-04-23T20:45:16.515Z,15.50
2019-04-23T20:50:10.666Z,14.07
2019-04-23T20:52:46.884Z,13.93
2019-04-23T20:55:51.075Z,14.50
2019-04-23T20:58:06.785Z,13.53
2019-04-23T21:05:41.847Z,14.70
2019-04-23T21:08:14.214Z,13.65
2019-04-23T21:10:55.666Z,14.18
2019-04-23T21:13:27.773Z,13.85
2019-04-23T21:15:54.649Z,13.48
2019-04-23T21:18:27.811Z,14.20
2019-04-23T21:20:54.996Z,14.20
2019-04-23T21:25:50.627Z,14.50
2019-04-23T21:33:36.822Z,14.65
2019-04-23T21:36:18.837Z,13.58
2019-04-23T21:39:15.442Z,13.83
2019-04-23T21:47:07.730Z,15.03
2019-04-23T21:51:51.158Z,14.98
2019-04-23T21:54:20.837Z,14.55
2019-04-23T21:59:22.750Z,13.40
2019-04-23T22:01:59.302Z,13.70
2019-04-23T22:06:52.970Z,14.38
2019-04-23T22:09:27.016Z,14.20
2019-04-23T22:14:26.638Z,13.55
2019-04-23T22:17:04.036Z,14.83
2019-04-23T22:19:45.551Z,14.75
2019-04-23T22:21:55.584Z,14.50
2019-04-23T22:24:46.416Z,14.85
2019-04-23T22:26:58.369Z,14.53
2019-04-23T22:29:35.956Z,13.85
2019-04-23T22:39:39.963Z,13.80
2019-04-23T22:42:22.437Z,14.55
2019-04-23T22:44:52.962Z,14.40
2019-04-23T22:49:45.272Z,14.65
2019-04-23T22:52:16.565Z,15.28
2019-04-23T22:54:51.319Z,15.68
2019-04-23T22:57:09.182Z,14.58
2019-04-23T23:00:00.889Z,15.45
2019-04-23T23:02:54.028Z,15.45
2019-04-23T23:07:59.430Z,14.03
2019-04-23T23:10:12.455Z,15.90
2019-04-23T23:12:52.759Z,15.40
2019-04-23T23:15:16.886Z,15.60
2019-04-23T23:18:02.061Z,15.80
2019-04-23T23:20:29.545Z,16.48
2019-04-23T23:22:58.472Z,15.38
2019-04-23T23:25:19.096Z,17.25
2019-04-23T23:27:57.762Z,17.17
2019-04-23T23:30:19.797Z,19.00
2019-04-23T23:32:58.153Z,24.35
2019-04-23T23:35:21.876Z,18.52
2019-04-23T23:37:54.062Z,16.85
2019-04-23T23:40:21.849Z,16.93
2019-04-23T23:43:07.200Z,16.35
2019-04-23T23:45:25.280Z,17.87
2019-04-23T23:50:25.146Z,17.52
2019-04-23T23:53:02.854Z,17.05
2019-04-23T23:55:24.994Z,17.90
2019-04-23T23:58:01.846Z,16.50
